sensor_id;sensor_type;location;lat;lon;timestamp;temperature;humidity
33564;DHT22;19894;48.452;11.494;2023-04-07T00:01:42;18.30;29.90
33564;DHT22;19894;48.452;11.494;2023-04-07T00:04:08;18.30;30.00
33564;DHT22;19894;48.452;11.494;2023-04-07T00:06:33;18.30;29.90
33564;DHT22;19894;48.452;11.494;2023-04-07T00:08:59;18.30;29.90
33564;DHT22;19894;48.452;11.494;2023-04-07T00:11:25;18.30;29.90
33564;DHT22;19894;48.452;11.494;2023-04-07T00:13:50;18.30;29.90
33564;DHT22;19894;48.452;11.494;2023-04-07T00:16:16;18.30;29.90
33564;DHT22;19894;48.452;11.494;2023-04-07T00:18:42;18.30;30.00
33564;DHT22;19894;48.452;11.494;2023-04-07T00:21:07;18.30;29.80
33564;DHT22;19894;48.452;11.494;2023-04-07T00:23:33;18.30;29.70
33564;DHT22;19894;48.452;11.494;2023-04-07T00:25:58;18.30;29.70
33564;DHT22;19894;48.452;11.494;2023-04-07T00:28:24;18.30;29.80
33564;DHT22;19894;48.452;11.494;2023-04-07T00:30:49;18.30;29.70
33564;DHT22;19894;48.452;11.494;2023-04-07T00:33:15;18.30;29.70
33564;DHT22;19894;48.452;11.494;2023-04-07T00:35:40;18.30;29.70
33564;DHT22;19894;48.452;11.494;2023-04-07T00:38:06;18.40;29.80
33564;DHT22;19894;48.452;11.494;2023-04-07T00:40:31;18.40;29.70
33564;DHT22;19894;48.452;11.494;2023-04-07T00:42:57;18.40;29.80
33564;DHT22;19894;48.452;11.494;2023-04-07T00:45:23;18.40;29.80
33564;DHT22;19894;48.452;11.494;2023-04-07T00:47:48;18.40;29.90
33564;DHT22;19894;48.452;11.494;2023-04-07T00:50:14;18.40;29.90
33564;DHT22;19894;48.452;11.494;2023-04-07T00:52:41;18.40;30.00
33564;DHT22;19894;48.452;11.494;2023-04-07T00:55:07;18.30;29.90
33564;DHT22;19894;48.452;11.494;2023-04-07T00:57:32;18.40;30.00
33564;DHT22;19894;48.452;11.494;2023-04-07T00:59:58;18.30;29.90
33564;DHT22;19894;48.452;11.494;2023-04-07T01:02:47;18.30;29.90
33564;DHT22;19894;48.452;11.494;2023-04-07T01:08:25;18.30;29.90
33564;DHT22;19894;48.452;11.494;2023-04-07T01:11:23;18.30;29.90
33564;DHT22;19894;48.452;11.494;2023-04-07T01:13:51;18.30;30.00
33564;DHT22;19894;48.452;11.494;2023-04-07T01:16:26;18.30;29.90
33564;DHT22;19894;48.452;11.494;2023-04-07T01:18:57;18.30;29.90
33564;DHT22;19894;48.452;11.494;2023-04-07T01:21:26;18.30;29.90
33564;DHT22;19894;48.452;11.494;2023-04-07T01:26:27;18.30;29.80
33564;DHT22;19894;48.452;11.494;2023-04-07T01:31:31;18.30;29.70
33564;DHT22;19894;48.452;11.494;2023-04-07T01:33:59;18.30;29.70
33564;DHT22;19894;48.452;11.494;2023-04-07T01:36:26;18.30;29.70
33564;DHT22;19894;48.452;11.494;2023-04-07T01:38:53;18.40;29.70
33564;DHT22;19894;48.452;11.494;2023-04-07T01:41:19;18.30;29.70
33564;DHT22;19894;48.452;11.494;2023-04-07T01:43:46;18.40;29.70
33564;DHT22;19894;48.452;11.494;2023-04-07T01:46:13;18.30;29.70
33564;DHT22;19894;48.452;11.494;2023-04-07T01:48:39;18.40;29.80
33564;DHT22;19894;48.452;11.494;2023-04-07T01:51:05;18.40;29.90
33564;DHT22;19894;48.452;11.494;2023-04-07T01:53:33;18.40;29.90
33564;DHT22;19894;48.452;11.494;2023-04-07T01:56:02;18.40;29.90
33564;DHT22;19894;48.452;11.494;2023-04-07T01:58:28;18.40;30.00
33564;DHT22;19894;48.452;11.494;2023-04-07T02:00:53;18.40;30.00
33564;DHT22;19894;48.452;11.494;2023-04-07T02:03:23;18.40;30.40
33564;DHT22;19894;48.452;11.494;2023-04-07T02:05:54;18.30;30.00
33564;DHT22;19894;48.452;11.494;2023-04-07T02:08:22;18.30;30.00
33564;DHT22;19894;48.452;11.494;2023-04-07T02:10:49;18.30;30.00
33564;DHT22;19894;48.452;11.494;2023-04-07T02:13:18;18.30;30.00
33564;DHT22;19894;48.452;11.494;2023-04-07T02:15:44;18.30;30.00
33564;DHT22;19894;48.452;11.494;2023-04-07T02:18:13;18.30;30.00
33564;DHT22;19894;48.452;11.494;2023-04-07T02:20:41;18.30;30.00
33564;DHT22;19894;48.452;11.494;2023-04-07T02:23:08;18.30;29.90
33564;DHT22;19894;48.452;11.494;2023-04-07T02:25:33;18.30;30.00
33564;DHT22;19894;48.452;11.494;2023-04-07T02:28:00;18.30;29.90
33564;DHT22;19894;48.452;11.494;2023-04-07T02:30:26;18.30;29.80
33564;DHT22;19894;48.452;11.494;2023-04-07T02:32:52;18.30;29.80
33564;DHT22;19894;48.452;11.494;2023-04-07T02:35:18;18.30;29.80
33564;DHT22;19894;48.452;11.494;2023-04-07T02:37:44;18.30;29.80
33564;DHT22;19894;48.452;11.494;2023-04-07T02:40:11;18.30;29.80
33564;DHT22;19894;48.452;11.494;2023-04-07T02:42:37;18.40;29.90
33564;DHT22;19894;48.452;11.494;2023-04-07T02:45:03;18.30;29.90
33564;DHT22;19894;48.452;11.494;2023-04-07T02:47:29;18.40;29.90
33564;DHT22;19894;48.452;11.494;2023-04-07T02:49:55;18.40;29.90
33564;DHT22;19894;48.452;11.494;2023-04-07T02:52:20;18.40;29.90
33564;DHT22;19894;48.452;11.494;2023-04-07T02:54:46;18.40;30.00
33564;DHT22;19894;48.452;11.494;2023-04-07T02:57:11;18.40;30.00
33564;DHT22;19894;48.452;11.494;2023-04-07T02:59:38;18.40;30.00
33564;DHT22;19894;48.452;11.494;2023-04-07T03:02:04;18.40;30.00
33564;DHT22;19894;48.452;11.494;2023-04-07T03:04:30;18.40;30.00
33564;DHT22;19894;48.452;11.494;2023-04-07T03:06:56;18.30;30.00
33564;DHT22;19894;48.452;11.494;2023-04-07T03:09:22;18.30;30.00
33564;DHT22;19894;48.452;11.494;2023-04-07T03:11:47;18.30;30.00
33564;DHT22;19894;48.452;11.494;2023-04-07T03:14:13;18.30;30.10
33564;DHT22;19894;48.452;11.494;2023-04-07T03:16:38;18.30;30.00
33564;DHT22;19894;48.452;11.494;2023-04-07T03:19:04;18.30;30.10
33564;DHT22;19894;48.452;11.494;2023-04-07T03:21:30;18.30;30.10
33564;DHT22;19894;48.452;11.494;2023-04-07T03:23:56;18.30;30.10
33564;DHT22;19894;48.452;11.494;2023-04-07T03:26:22;18.30;30.10
33564;DHT22;19894;48.452;11.494;2023-04-07T03:28:48;18.30;30.10
33564;DHT22;19894;48.452;11.494;2023-04-07T03:31:13;18.30;30.10
33564;DHT22;19894;48.452;11.494;2023-04-07T03:33:39;18.30;30.10
33564;DHT22;19894;48.452;11.494;2023-04-07T03:36:05;18.30;30.00
33564;DHT22;19894;48.452;11.494;2023-04-07T03:38:31;18.30;30.00
33564;DHT22;19894;48.452;11.494;2023-04-07T03:40:57;18.30;30.00
33564;DHT22;19894;48.452;11.494;2023-04-07T03:43:22;18.30;30.00
33564;DHT22;19894;48.452;11.494;2023-04-07T03:45:48;18.30;30.00
33564;DHT22;19894;48.452;11.494;2023-04-07T03:48:14;18.30;30.10
33564;DHT22;19894;48.452;11.494;2023-04-07T03:50:40;18.40;30.70
33564;DHT22;19894;48.452;11.494;2023-04-07T03:53:06;18.40;30.10
33564;DHT22;19894;48.452;11.494;2023-04-07T03:55:32;18.40;30.20
33564;DHT22;19894;48.452;11.494;2023-04-07T03:57:58;18.40;30.20
33564;DHT22;19894;48.452;11.494;2023-04-07T04:00:24;18.30;30.20
33564;DHT22;19894;48.452;11.494;2023-04-07T04:02:50;18.40;30.40
33564;DHT22;19894;48.452;11.494;2023-04-07T04:05:15;18.40;30.40
33564;DHT22;19894;48.452;11.494;2023-04-07T04:07:41;18.40;31.00
33564;DHT22;19894;48.452;11.494;2023-04-07T04:10:07;18.40;30.50
33564;DHT22;19894;48.452;11.494;2023-04-07T04:12:32;18.40;30.50
33564;DHT22;19894;48.452;11.494;2023-04-07T04:14:58;18.40;30.60
33564;DHT22;19894;48.452;11.494;2023-04-07T04:17:24;18.30;30.50
33564;DHT22;19894;48.452;11.494;2023-04-07T04:19:50;18.30;30.50
33564;DHT22;19894;48.452;11.494;2023-04-07T04:22:15;18.30;30.60
33564;DHT22;19894;48.452;11.494;2023-04-07T04:24:41;18.30;30.60
33564;DHT22;19894;48.452;11.494;2023-04-07T04:27:07;18.30;30.70
33564;DHT22;19894;48.452;11.494;2023-04-07T04:29:33;18.30;30.80
33564;DHT22;19894;48.452;11.494;2023-04-07T04:31:58;18.30;30.80
33564;DHT22;19894;48.452;11.494;2023-04-07T04:34:24;18.30;30.90
33564;DHT22;19894;48.452;11.494;2023-04-07T04:36:50;18.30;31.00
33564;DHT22;19894;48.452;11.494;2023-04-07T04:39:16;18.30;31.00
33564;DHT22;19894;48.452;11.494;2023-04-07T04:41:41;18.30;31.10
33564;DHT22;19894;48.452;11.494;2023-04-07T04:44:07;18.30;31.10
33564;DHT22;19894;48.452;11.494;2023-04-07T04:46:32;18.30;31.20
33564;DHT22;19894;48.452;11.494;2023-04-07T04:48:58;18.40;31.30
33564;DHT22;19894;48.452;11.494;2023-04-07T04:51:23;18.30;31.40
33564;DHT22;19894;48.452;11.494;2023-04-07T04:53:50;18.30;31.30
33564;DHT22;19894;48.452;11.494;2023-04-07T04:56:16;18.40;31.50
33564;DHT22;19894;48.452;11.494;2023-04-07T04:58:41;18.40;31.50
33564;DHT22;19894;48.452;11.494;2023-04-07T05:01:11;18.30;31.40
33564;DHT22;19894;48.452;11.494;2023-04-07T05:03:36;18.40;31.40
33564;DHT22;19894;48.452;11.494;2023-04-07T05:06:02;18.40;31.40
33564;DHT22;19894;48.452;11.494;2023-04-07T05:08:28;18.40;31.40
33564;DHT22;19894;48.452;11.494;2023-04-07T05:10:53;18.40;31.50
33564;DHT22;19894;48.452;11.494;2023-04-07T05:13:20;18.40;31.60
33564;DHT22;19894;48.452;11.494;2023-04-07T05:15:45;18.30;31.60
33564;DHT22;19894;48.452;11.494;2023-04-07T05:18:11;18.40;31.70
33564;DHT22;19894;48.452;11.494;2023-04-07T05:20:37;18.40;31.80
33564;DHT22;19894;48.452;11.494;2023-04-07T05:23:03;18.30;31.70
33564;DHT22;19894;48.452;11.494;2023-04-07T05:25:28;18.40;31.90
33564;DHT22;19894;48.452;11.494;2023-04-07T05:27:54;18.30;31.90
33564;DHT22;19894;48.452;11.494;2023-04-07T05:30:20;18.30;31.90
33564;DHT22;19894;48.452;11.494;2023-04-07T05:32:45;18.30;31.90
33564;DHT22;19894;48.452;11.494;2023-04-07T05:35:11;18.30;31.90
33564;DHT22;19894;48.452;11.494;2023-04-07T05:37:37;18.30;32.00
33564;DHT22;19894;48.452;11.494;2023-04-07T05:40:02;18.30;32.10
33564;DHT22;19894;48.452;11.494;2023-04-07T05:42:28;18.30;32.20
33564;DHT22;19894;48.452;11.494;2023-04-07T05:44:54;18.30;32.30
33564;DHT22;19894;48.452;11.494;2023-04-07T05:47:20;18.30;32.30
33564;DHT22;19894;48.452;11.494;2023-04-07T05:49:45;18.40;32.40
33564;DHT22;19894;48.452;11.494;2023-04-07T05:52:12;18.40;32.40
33564;DHT22;19894;48.452;11.494;2023-04-07T05:54:38;18.40;32.60
33564;DHT22;19894;48.452;11.494;2023-04-07T05:57:06;18.30;32.50
33564;DHT22;19894;48.452;11.494;2023-04-07T05:59:33;18.40;32.60
33564;DHT22;19894;48.452;11.494;2023-04-07T06:01:59;18.40;32.60
33564;DHT22;19894;48.452;11.494;2023-04-07T06:04:24;18.40;32.60
33564;DHT22;19894;48.452;11.494;2023-04-07T06:06:50;18.40;32.60
33564;DHT22;19894;48.452;11.494;2023-04-07T06:09:22;18.40;32.60
33564;DHT22;19894;48.452;11.494;2023-04-07T06:11:48;18.40;32.50
33564;DHT22;19894;48.452;11.494;2023-04-07T06:14:13;18.40;32.50
33564;DHT22;19894;48.452;11.494;2023-04-07T06:16:39;18.40;32.70
33564;DHT22;19894;48.452;11.494;2023-04-07T06:19:05;18.40;32.80
33564;DHT22;19894;48.452;11.494;2023-04-07T06:21:31;18.40;32.80
33564;DHT22;19894;48.452;11.494;2023-04-07T06:23:57;18.40;32.80
33564;DHT22;19894;48.452;11.494;2023-04-07T06:26:23;18.40;32.90
33564;DHT22;19894;48.452;11.494;2023-04-07T06:28:49;18.40;32.90
33564;DHT22;19894;48.452;11.494;2023-04-07T06:31:14;18.40;33.60
33564;DHT22;19894;48.452;11.494;2023-04-07T06:33:41;18.40;33.50
33564;DHT22;19894;48.452;11.494;2023-04-07T06:36:06;18.40;33.00
33564;DHT22;19894;48.452;11.494;2023-04-07T06:38:32;18.40;32.90
33564;DHT22;19894;48.452;11.494;2023-04-07T06:40:57;18.40;33.00
33564;DHT22;19894;48.452;11.494;2023-04-07T06:43:23;18.40;33.10
33564;DHT22;19894;48.452;11.494;2023-04-07T06:45:48;18.40;33.20
33564;DHT22;19894;48.452;11.494;2023-04-07T06:48:15;18.30;33.20
33564;DHT22;19894;48.452;11.494;2023-04-07T06:50:40;18.40;33.30
33564;DHT22;19894;48.452;11.494;2023-04-07T06:53:06;18.30;33.30
33564;DHT22;19894;48.452;11.494;2023-04-07T06:55:32;18.40;33.50
33564;DHT22;19894;48.452;11.494;2023-04-07T06:57:57;18.40;33.50
33564;DHT22;19894;48.452;11.494;2023-04-07T07:00:23;18.40;33.60
33564;DHT22;19894;48.452;11.494;2023-04-07T07:02:49;18.40;33.60
33564;DHT22;19894;48.452;11.494;2023-04-07T07:05:15;18.40;33.70
33564;DHT22;19894;48.452;11.494;2023-04-07T07:07:40;18.40;33.70
33564;DHT22;19894;48.452;11.494;2023-04-07T07:10:08;18.40;33.50
33564;DHT22;19894;48.452;11.494;2023-04-07T07:12:35;18.40;33.50
33564;DHT22;19894;48.452;11.494;2023-04-07T07:15:00;18.40;33.50
33564;DHT22;19894;48.452;11.494;2023-04-07T07:17:26;18.40;33.50
33564;DHT22;19894;48.452;11.494;2023-04-07T07:19:51;18.40;33.60
33564;DHT22;19894;48.452;11.494;2023-04-07T07:22:17;18.40;33.70
33564;DHT22;19894;48.452;11.494;2023-04-07T07:24:42;18.40;33.80
33564;DHT22;19894;48.452;11.494;2023-04-07T07:27:08;18.40;33.80
33564;DHT22;19894;48.452;11.494;2023-04-07T07:29:33;18.40;33.70
33564;DHT22;19894;48.452;11.494;2023-04-07T07:31:59;18.40;33.80
33564;DHT22;19894;48.452;11.494;2023-04-07T07:34:25;18.40;33.70
33564;DHT22;19894;48.452;11.494;2023-04-07T07:36:50;18.40;33.80
33564;DHT22;19894;48.452;11.494;2023-04-07T07:39:16;18.40;33.80
33564;DHT22;19894;48.452;11.494;2023-04-07T07:41:42;18.40;33.80
33564;DHT22;19894;48.452;11.494;2023-04-07T07:44:07;18.40;33.80
33564;DHT22;19894;48.452;11.494;2023-04-07T07:46:33;18.40;34.10
33564;DHT22;19894;48.452;11.494;2023-04-07T07:48:59;18.30;34.00
33564;DHT22;19894;48.452;11.494;2023-04-07T07:51:24;18.40;34.20
33564;DHT22;19894;48.452;11.494;2023-04-07T07:53:50;18.40;34.20
33564;DHT22;19894;48.452;11.494;2023-04-07T07:56:15;18.40;34.20
33564;DHT22;19894;48.452;11.494;2023-04-07T07:58:41;18.40;34.30
33564;DHT22;19894;48.452;11.494;2023-04-07T08:01:06;18.40;34.30
33564;DHT22;19894;48.452;11.494;2023-04-07T08:03:32;18.40;34.20
33564;DHT22;19894;48.452;11.494;2023-04-07T08:05:58;18.40;34.30
33564;DHT22;19894;48.452;11.494;2023-04-07T08:08:23;18.40;34.20
33564;DHT22;19894;48.452;11.494;2023-04-07T08:10:49;18.40;34.20
33564;DHT22;19894;48.452;11.494;2023-04-07T08:13:14;18.40;34.70
33564;DHT22;19894;48.452;11.494;2023-04-07T08:15:40;18.40;34.20
33564;DHT22;19894;48.452;11.494;2023-04-07T08:18:06;18.40;34.00
33564;DHT22;19894;48.452;11.494;2023-04-07T08:20:32;18.40;34.10
33564;DHT22;19894;48.452;11.494;2023-04-07T08:22:58;18.40;34.20
33564;DHT22;19894;48.452;11.494;2023-04-07T08:25:24;18.40;34.20
33564;DHT22;19894;48.452;11.494;2023-04-07T08:27:50;18.40;34.20
33564;DHT22;19894;48.452;11.494;2023-04-07T08:30:15;18.40;34.20
33564;DHT22;19894;48.452;11.494;2023-04-07T08:32:42;18.40;34.20
33564;DHT22;19894;48.452;11.494;2023-04-07T08:35:08;18.40;34.20
33564;DHT22;19894;48.452;11.494;2023-04-07T08:37:35;18.40;34.30
33564;DHT22;19894;48.452;11.494;2023-04-07T08:40:01;18.40;34.30
33564;DHT22;19894;48.452;11.494;2023-04-07T08:42:29;18.40;34.20
33564;DHT22;19894;48.452;11.494;2023-04-07T08:44:57;18.40;34.20
33564;DHT22;19894;48.452;11.494;2023-04-07T08:47:27;18.40;34.20
33564;DHT22;19894;48.452;11.494;2023-04-07T08:49:56;18.40;34.40
33564;DHT22;19894;48.452;11.494;2023-04-07T08:52:23;18.40;34.40
33564;DHT22;19894;48.452;11.494;2023-04-07T08:54:53;18.40;34.50
33564;DHT22;19894;48.452;11.494;2023-04-07T08:57:20;18.40;34.50
33564;DHT22;19894;48.452;11.494;2023-04-07T08:59:47;18.40;34.50
33564;DHT22;19894;48.452;11.494;2023-04-07T09:02:14;18.40;34.60
33564;DHT22;19894;48.452;11.494;2023-04-07T09:04:40;18.40;34.60
33564;DHT22;19894;48.452;11.494;2023-04-07T09:07:07;18.40;34.60
33564;DHT22;19894;48.452;11.494;2023-04-07T09:09:32;18.40;34.70
33564;DHT22;19894;48.452;11.494;2023-04-07T09:11:58;18.40;34.70
33564;DHT22;19894;48.452;11.494;2023-04-07T09:14:24;18.40;34.60
33564;DHT22;19894;48.452;11.494;2023-04-07T09:16:49;18.40;34.60
33564;DHT22;19894;48.452;11.494;2023-04-07T09:19:15;18.40;34.50
33564;DHT22;19894;48.452;11.494;2023-04-07T09:21:48;18.40;34.50
33564;DHT22;19894;48.452;11.494;2023-04-07T09:24:25;18.40;34.50
33564;DHT22;19894;48.452;11.494;2023-04-07T09:27:08;18.40;34.60
33564;DHT22;19894;48.452;11.494;2023-04-07T09:29:34;18.40;34.60
33564;DHT22;19894;48.452;11.494;2023-04-07T09:32:00;18.40;34.80
33564;DHT22;19894;48.452;11.494;2023-04-07T09:34:33;18.40;34.80
33564;DHT22;19894;48.452;11.494;2023-04-07T09:37:00;18.40;34.60
33564;DHT22;19894;48.452;11.494;2023-04-07T09:39:26;18.40;34.70
33564;DHT22;19894;48.452;11.494;2023-04-07T09:41:52;18.40;34.70
33564;DHT22;19894;48.452;11.494;2023-04-07T09:44:21;18.40;34.70
33564;DHT22;19894;48.452;11.494;2023-04-07T09:46:51;18.40;34.70
33564;DHT22;19894;48.452;11.494;2023-04-07T09:49:17;18.30;34.60
33564;DHT22;19894;48.452;11.494;2023-04-07T09:56:59;18.40;34.90
33564;DHT22;19894;48.452;11.494;2023-04-07T09:59:27;18.40;35.00
33564;DHT22;19894;48.452;11.494;2023-04-07T10:01:53;18.40;35.00
33564;DHT22;19894;48.452;11.494;2023-04-07T10:04:19;18.40;35.00
33564;DHT22;19894;48.452;11.494;2023-04-07T10:06:46;18.40;35.10
33564;DHT22;19894;48.452;11.494;2023-04-07T10:09:12;18.40;35.00
33564;DHT22;19894;48.452;11.494;2023-04-07T10:11:38;18.40;34.90
33564;DHT22;19894;48.452;11.494;2023-04-07T10:14:05;18.40;34.90
33564;DHT22;19894;48.452;11.494;2023-04-07T10:16:31;18.40;34.80
33564;DHT22;19894;48.452;11.494;2023-04-07T10:18:57;18.40;34.70
33564;DHT22;19894;48.452;11.494;2023-04-07T10:21:23;18.40;34.60
33564;DHT22;19894;48.452;11.494;2023-04-07T10:26:57;18.40;34.40
33564;DHT22;19894;48.452;11.494;2023-04-07T10:29:24;18.40;34.30
33564;DHT22;19894;48.452;11.494;2023-04-07T10:31:51;18.40;34.30
33564;DHT22;19894;48.452;11.494;2023-04-07T10:37:15;18.40;34.30
33564;DHT22;19894;48.452;11.494;2023-04-07T10:42:52;18.40;34.30
33564;DHT22;19894;48.452;11.494;2023-04-07T10:48:19;18.40;34.30
33564;DHT22;19894;48.452;11.494;2023-04-07T10:50:45;18.40;34.20
33564;DHT22;19894;48.452;11.494;2023-04-07T10:53:31;18.40;34.30
33564;DHT22;19894;48.452;11.494;2023-04-07T10:55:58;18.40;34.30
33564;DHT22;19894;48.452;11.494;2023-04-07T10:58:30;18.40;34.30
33564;DHT22;19894;48.452;11.494;2023-04-07T11:03:26;18.40;34.40
33564;DHT22;19894;48.452;11.494;2023-04-07T11:05:52;18.40;34.50
33564;DHT22;19894;48.452;11.494;2023-04-07T11:11:05;18.40;34.50
33564;DHT22;19894;48.452;11.494;2023-04-07T11:13:43;18.40;34.50
33564;DHT22;19894;48.452;11.494;2023-04-07T11:16:10;18.40;34.50
33564;DHT22;19894;48.452;11.494;2023-04-07T11:18:37;18.40;34.50
33564;DHT22;19894;48.452;11.494;2023-04-07T11:21:03;18.40;34.50
33564;DHT22;19894;48.452;11.494;2023-04-07T11:23:40;18.40;34.40
33564;DHT22;19894;48.452;11.494;2023-04-07T11:26:07;18.40;34.40
33564;DHT22;19894;48.452;11.494;2023-04-07T11:28:43;18.40;34.40
33564;DHT22;19894;48.452;11.494;2023-04-07T11:31:10;18.40;34.40
33564;DHT22;19894;48.452;11.494;2023-04-07T11:33:36;18.40;34.40
33564;DHT22;19894;48.452;11.494;2023-04-07T11:36:04;18.40;34.50
33564;DHT22;19894;48.452;11.494;2023-04-07T11:38:37;18.40;34.50
33564;DHT22;19894;48.452;11.494;2023-04-07T11:41:13;18.40;34.50
33564;DHT22;19894;48.452;11.494;2023-04-07T11:43:40;18.40;34.60
33564;DHT22;19894;48.452;11.494;2023-04-07T11:46:10;18.40;34.60
33564;DHT22;19894;48.452;11.494;2023-04-07T11:48:38;18.40;34.50
33564;DHT22;19894;48.452;11.494;2023-04-07T11:51:05;18.40;34.50
33564;DHT22;19894;48.452;11.494;2023-04-07T11:53:35;18.30;34.30
33564;DHT22;19894;48.452;11.494;2023-04-07T11:56:06;18.40;34.40
33564;DHT22;19894;48.452;11.494;2023-04-07T11:58:37;18.40;34.50
33564;DHT22;19894;48.452;11.494;2023-04-07T12:01:04;18.40;34.60
33564;DHT22;19894;48.452;11.494;2023-04-07T12:03:34;18.30;34.60
33564;DHT22;19894;48.452;11.494;2023-04-07T12:06:01;18.40;34.70
33564;DHT22;19894;48.452;11.494;2023-04-07T12:08:41;18.40;34.80
33564;DHT22;19894;48.452;11.494;2023-04-07T12:11:07;18.40;34.80
33564;DHT22;19894;48.452;11.494;2023-04-07T12:13:34;18.40;34.80
33564;DHT22;19894;48.452;11.494;2023-04-07T12:16:00;18.40;34.80
33564;DHT22;19894;48.452;11.494;2023-04-07T12:18:27;18.40;34.80
33564;DHT22;19894;48.452;11.494;2023-04-07T12:20:52;18.40;34.80
33564;DHT22;19894;48.452;11.494;2023-04-07T12:23:18;18.40;34.80
33564;DHT22;19894;48.452;11.494;2023-04-07T12:25:43;18.40;34.80
33564;DHT22;19894;48.452;11.494;2023-04-07T12:28:09;18.40;34.70
33564;DHT22;19894;48.452;11.494;2023-04-07T12:30:35;18.40;34.70
33564;DHT22;19894;48.452;11.494;2023-04-07T12:33:00;18.40;34.70
33564;DHT22;19894;48.452;11.494;2023-04-07T12:35:28;18.40;34.60
33564;DHT22;19894;48.452;11.494;2023-04-07T12:37:54;18.40;34.70
33564;DHT22;19894;48.452;11.494;2023-04-07T12:40:21;18.40;34.80
33564;DHT22;19894;48.452;11.494;2023-04-07T12:42:47;18.40;34.80
33564;DHT22;19894;48.452;11.494;2023-04-07T12:45:12;18.40;34.80
33564;DHT22;19894;48.452;11.494;2023-04-07T12:47:38;18.40;34.70
33564;DHT22;19894;48.452;11.494;2023-04-07T12:50:04;18.30;34.80
33564;DHT22;19894;48.452;11.494;2023-04-07T12:52:30;18.40;34.70
33564;DHT22;19894;48.452;11.494;2023-04-07T12:54:56;18.30;34.60
33564;DHT22;19894;48.452;11.494;2023-04-07T12:57:23;18.40;34.70
33564;DHT22;19894;48.452;11.494;2023-04-07T12:59:48;18.40;34.70
33564;DHT22;19894;48.452;11.494;2023-04-07T13:02:14;18.40;34.80
33564;DHT22;19894;48.452;11.494;2023-04-07T13:04:42;18.40;34.80
33564;DHT22;19894;48.452;11.494;2023-04-07T13:07:11;18.30;34.80
33564;DHT22;19894;48.452;11.494;2023-04-07T13:09:37;18.30;34.80
33564;DHT22;19894;48.452;11.494;2023-04-07T13:12:03;18.40;34.90
33564;DHT22;19894;48.452;11.494;2023-04-07T13:14:28;18.40;34.90
33564;DHT22;19894;48.452;11.494;2023-04-07T13:16:54;18.40;35.00
33564;DHT22;19894;48.452;11.494;2023-04-07T13:19:20;18.40;35.00
33564;DHT22;19894;48.452;11.494;2023-04-07T13:21:46;18.40;35.00
33564;DHT22;19894;48.452;11.494;2023-04-07T13:24:11;18.40;35.10
33564;DHT22;19894;48.452;11.494;2023-04-07T13:26:37;18.40;35.10
33564;DHT22;19894;48.452;11.494;2023-04-07T13:29:02;18.40;35.20
33564;DHT22;19894;48.452;11.494;2023-04-07T13:31:28;18.40;35.10
33564;DHT22;19894;48.452;11.494;2023-04-07T13:33:54;18.40;35.10
33564;DHT22;19894;48.452;11.494;2023-04-07T13:36:20;18.40;35.10
33564;DHT22;19894;48.452;11.494;2023-04-07T13:38:46;18.40;35.20
33564;DHT22;19894;48.452;11.494;2023-04-07T13:41:12;18.40;35.10
33564;DHT22;19894;48.452;11.494;2023-04-07T13:43:37;18.40;35.10
33564;DHT22;19894;48.452;11.494;2023-04-07T13:46:03;18.40;35.10
33564;DHT22;19894;48.452;11.494;2023-04-07T13:48:28;18.40;35.10
33564;DHT22;19894;48.452;11.494;2023-04-07T13:50:54;18.40;35.10
33564;DHT22;19894;48.452;11.494;2023-04-07T13:53:19;18.40;35.00
33564;DHT22;19894;48.452;11.494;2023-04-07T13:55:46;18.40;35.00
33564;DHT22;19894;48.452;11.494;2023-04-07T13:58:11;18.40;35.00
33564;DHT22;19894;48.452;11.494;2023-04-07T14:00:37;18.40;35.00
33564;DHT22;19894;48.452;11.494;2023-04-07T14:03:04;18.40;34.90
33564;DHT22;19894;48.452;11.494;2023-04-07T14:05:30;18.40;35.00
33564;DHT22;19894;48.452;11.494;2023-04-07T14:07:56;18.40;35.10
33564;DHT22;19894;48.452;11.494;2023-04-07T14:10:21;18.40;35.20
33564;DHT22;19894;48.452;11.494;2023-04-07T14:12:47;18.30;35.30
33564;DHT22;19894;48.452;11.494;2023-04-07T14:15:12;18.40;35.40
33564;DHT22;19894;48.452;11.494;2023-04-07T14:17:38;18.40;35.50
33564;DHT22;19894;48.452;11.494;2023-04-07T14:20:04;18.40;35.40
33564;DHT22;19894;48.452;11.494;2023-04-07T14:22:30;18.40;35.50
33564;DHT22;19894;48.452;11.494;2023-04-07T14:24:56;18.40;35.50
33564;DHT22;19894;48.452;11.494;2023-04-07T14:27:21;18.40;35.50
33564;DHT22;19894;48.452;11.494;2023-04-07T14:29:47;18.40;35.50
33564;DHT22;19894;48.452;11.494;2023-04-07T14:32:13;18.40;35.50
33564;DHT22;19894;48.452;11.494;2023-04-07T14:34:39;18.40;35.50
33564;DHT22;19894;48.452;11.494;2023-04-07T14:37:05;18.40;35.40
33564;DHT22;19894;48.452;11.494;2023-04-07T14:39:31;18.50;35.40
33564;DHT22;19894;48.452;11.494;2023-04-07T14:41:56;18.40;35.40
33564;DHT22;19894;48.452;11.494;2023-04-07T14:44:22;18.40;35.30
33564;DHT22;19894;48.452;11.494;2023-04-07T14:46:48;18.40;35.40
33564;DHT22;19894;48.452;11.494;2023-04-07T14:49:14;18.40;35.40
33564;DHT22;19894;48.452;11.494;2023-04-07T14:51:39;18.40;35.30
33564;DHT22;19894;48.452;11.494;2023-04-07T14:54:05;18.40;35.40
33564;DHT22;19894;48.452;11.494;2023-04-07T14:56:31;18.40;35.30
33564;DHT22;19894;48.452;11.494;2023-04-07T14:58:56;18.40;35.30
33564;DHT22;19894;48.452;11.494;2023-04-07T15:01:22;18.40;35.30
33564;DHT22;19894;48.452;11.494;2023-04-07T15:03:49;18.40;35.30
33564;DHT22;19894;48.452;11.494;2023-04-07T15:06:15;18.40;35.30
33564;DHT22;19894;48.452;11.494;2023-04-07T15:08:41;18.40;35.30
33564;DHT22;19894;48.452;11.494;2023-04-07T15:11:07;18.30;35.30
33564;DHT22;19894;48.452;11.494;2023-04-07T15:13:33;18.40;35.50
33564;DHT22;19894;48.452;11.494;2023-04-07T15:16:12;18.40;35.60
33564;DHT22;19894;48.452;11.494;2023-04-07T15:18:40;18.40;35.60
33564;DHT22;19894;48.452;11.494;2023-04-07T15:21:08;18.40;36.20
33564;DHT22;19894;48.452;11.494;2023-04-07T15:23:37;18.40;35.60
33564;DHT22;19894;48.452;11.494;2023-04-07T15:26:04;18.40;35.60
33564;DHT22;19894;48.452;11.494;2023-04-07T15:28:30;18.40;35.70
33564;DHT22;19894;48.452;11.494;2023-04-07T15:30:56;18.40;35.70
33564;DHT22;19894;48.452;11.494;2023-04-07T15:33:22;18.40;35.70
33564;DHT22;19894;48.452;11.494;2023-04-07T15:35:48;18.40;35.70
33564;DHT22;19894;48.452;11.494;2023-04-07T15:38:14;18.40;35.60
33564;DHT22;19894;48.452;11.494;2023-04-07T15:40:40;18.50;35.60
33564;DHT22;19894;48.452;11.494;2023-04-07T15:43:06;18.40;35.40